createdAt,value
2023-03-30T00:00:18.639Z,68.54
2023-03-30T00:02:50.947Z,69.70
2023-03-30T00:05:19.471Z,69.29
2023-03-30T00:07:48.328Z,69.30
2023-03-30T00:10:19.106Z,70.80
2023-03-30T00:12:48.408Z,71.98
2023-03-30T00:15:17.582Z,71.83
2023-03-30T00:17:46.117Z,71.70
2023-03-30T00:20:17.255Z,70.93
2023-03-30T00:22:46.879Z,71.61
2023-03-30T00:25:17.459Z,72.81
2023-03-30T00:27:45.773Z,72.94
2023-03-30T00:30:16.076Z,73.67
2023-03-30T00:32:44.169Z,73.14
2023-03-30T00:35:13.481Z,72.16
2023-03-30T00:37:45.698Z,72.09
2023-03-30T00:40:17.939Z,71.60
2023-03-30T00:42:46.329Z,72.71
2023-03-30T00:45:21.811Z,72.62
2023-03-30T00:48:01.377Z,72.25
2023-03-30T00:50:36.016Z,72.20
2023-03-30T00:53:11.023Z,72.01
2023-03-30T00:55:41.292Z,72.44
2023-03-30T00:58:10.944Z,73.32
2023-03-30T01:00:39.727Z,72.96
2023-03-30T01:03:16.122Z,75.28
2023-03-30T01:05:46.264Z,75.64
2023-03-30T01:08:18.402Z,75.08
2023-03-30T01:10:46.430Z,76.69
2023-03-30T01:13:15.806Z,76.06
2023-03-30T01:16:09.048Z,74.92
2023-03-30T01:18:48.876Z,75.01
2023-03-30T01:21:49.819Z,75.45
2023-03-30T01:24:58.715Z,75.42
2023-03-30T01:28:11.218Z,74.90
2023-03-30T01:31:09.346Z,74.17
2023-03-30T01:34:03.535Z,73.22
2023-03-30T01:36:48.646Z,72.67
2023-03-30T01:39:41.998Z,72.42
2023-03-30T01:42:18.616Z,72.22
2023-03-30T01:44:55.005Z,73.64
2023-03-30T01:47:26.853Z,73.46
2023-03-30T01:50:00.350Z,73.04
2023-03-30T01:52:37.055Z,72.52
2023-03-30T01:55:13.445Z,72.26
2023-03-30T01:57:47.446Z,72.47
2023-03-30T02:00:20.397Z,73.51
2023-03-30T02:02:52.798Z,74.67
2023-03-30T02:05:22.410Z,73.99
2023-03-30T02:07:54.066Z,73.53
2023-03-30T02:10:28.511Z,74.51
2023-03-30T02:12:57.669Z,74.42
2023-03-30T02:15:30.907Z,75.29
2023-03-30T02:17:58.863Z,75.43
2023-03-30T02:20:28.738Z,75.15
2023-03-30T02:22:57.287Z,75.55
2023-03-30T02:25:26.727Z,75.77
2023-03-30T02:27:55.115Z,76.73
2023-03-30T02:30:23.257Z,75.98
2023-03-30T02:32:56.036Z,75.67
2023-03-30T02:35:52.030Z,74.67
2023-03-30T02:38:43.077Z,74.90
2023-03-30T02:41:22.566Z,75.40
2023-03-30T02:43:58.738Z,74.85
2023-03-30T02:46:54.807Z,74.56
2023-03-30T02:49:34.230Z,74.66
2023-03-30T02:52:09.260Z,74.56
2023-03-30T02:54:47.589Z,73.88
2023-03-30T02:57:30.072Z,72.94
2023-03-30T03:00:01.965Z,73.06
2023-03-30T03:02:35.556Z,71.93
2023-03-30T03:05:04.748Z,70.11
2023-03-30T03:07:33.952Z,70.54
2023-03-30T03:10:02.373Z,70.73
2023-03-30T03:12:31.868Z,69.57
2023-03-30T03:15:01.933Z,70.27
2023-03-30T03:17:34.832Z,68.86
2023-03-30T03:20:04.157Z,68.41
2023-03-30T03:22:32.384Z,67.90
2023-03-30T03:25:02.669Z,67.60
2023-03-30T03:27:32.105Z,65.49
2023-03-30T03:30:00.021Z,66.02
2023-03-30T03:32:28.073Z,66.40
2023-03-30T03:34:56.011Z,66.30
2023-03-30T03:37:23.918Z,66.76
2023-03-30T03:39:51.834Z,67.69
2023-03-30T03:42:19.752Z,70.12
2023-03-30T03:44:49.087Z,71.55
2023-03-30T03:47:16.965Z,71.88
2023-03-30T03:49:44.911Z,71.92
2023-03-30T03:52:12.792Z,71.99
2023-03-30T03:54:40.715Z,71.90
2023-03-30T03:57:08.784Z,73.85
2023-03-30T03:59:36.824Z,75.75
2023-03-30T04:02:06.708Z,76.07
2023-03-30T04:04:34.747Z,75.31
2023-03-30T04:07:02.671Z,73.73
2023-03-30T04:09:30.596Z,71.52
2023-03-30T04:11:58.588Z,70.49
2023-03-30T04:14:26.713Z,70.54
2023-03-30T04:16:58.090Z,69.90
2023-03-30T04:19:27.880Z,69.13
2023-03-30T04:21:55.815Z,70.17
2023-03-30T04:24:23.792Z,68.67
2023-03-30T04:26:51.707Z,67.85
2023-03-30T04:29:20.802Z,67.70
2023-03-30T04:31:50.931Z,66.84
2023-03-30T04:34:21.991Z,69.82
2023-03-30T04:36:51.353Z,69.11
2023-03-30T04:39:20.882Z,69.61
2023-03-30T04:41:52.310Z,69.56
2023-03-30T04:44:20.958Z,67.83
2023-03-30T04:46:49.134Z,67.02
2023-03-30T04:49:17.038Z,65.91
2023-03-30T04:51:44.967Z,65.93
2023-03-30T04:54:14.304Z,64.23
2023-03-30T04:56:42.471Z,63.59
2023-03-30T04:59:10.731Z,64.93
2023-03-30T05:01:38.721Z,66.01
2023-03-30T05:04:06.731Z,65.79
2023-03-30T05:06:34.718Z,64.85
2023-03-30T05:09:02.756Z,66.27
2023-03-30T05:11:32.047Z,66.56
2023-03-30T05:13:59.955Z,66.42
2023-03-30T05:16:28.132Z,63.31
2023-03-30T05:18:56.800Z,61.01
2023-03-30T05:21:24.906Z,62.27
2023-03-30T05:23:53.036Z,59.28
2023-03-30T05:26:21.015Z,58.43
2023-03-30T05:28:50.364Z,57.31
2023-03-30T05:31:18.763Z,58.68
2023-03-30T05:33:46.882Z,57.55
2023-03-30T05:36:14.995Z,54.77
2023-03-30T05:38:42.950Z,49.75
2023-03-30T05:41:11.283Z,51.59
2023-03-30T05:43:39.267Z,49.16
2023-03-30T05:46:08.821Z,50.80
2023-03-30T05:48:36.764Z,48.51
2023-03-30T05:51:05.117Z,47.46
2023-03-30T05:53:33.323Z,49.12
2023-03-30T05:56:01.252Z,46.39
2023-03-30T05:58:29.209Z,47.93
2023-03-30T06:00:59.032Z,48.08
2023-03-30T06:03:28.408Z,45.78
2023-03-30T06:05:56.440Z,46.92
2023-03-30T06:08:24.437Z,47.35
2023-03-30T06:10:56.235Z,47.56
2023-03-30T06:13:24.408Z,44.94
2023-03-30T06:15:52.381Z,46.55
2023-03-30T06:18:20.301Z,45.12
2023-03-30T06:20:50.591Z,45.81
2023-03-30T06:23:18.720Z,45.64
2023-03-30T06:25:47.766Z,44.62
2023-03-30T06:28:16.152Z,45.01
2023-03-30T06:30:45.635Z,44.41
2023-03-30T06:33:15.290Z,43.83
2023-03-30T06:35:46.351Z,44.74
2023-03-30T06:38:16.169Z,44.65
2023-03-30T06:40:44.780Z,46.17
2023-03-30T06:43:17.660Z,45.45
2023-03-30T06:45:51.038Z,46.73
2023-03-30T06:48:20.675Z,44.95
2023-03-30T06:50:48.864Z,45.70
2023-03-30T06:53:18.688Z,44.36
2023-03-30T06:55:51.381Z,45.62
2023-03-30T06:58:19.358Z,44.40
2023-03-30T07:00:47.487Z,44.69
2023-03-30T07:03:17.079Z,44.41
2023-03-30T07:05:45.211Z,43.48
2023-03-30T07:08:14.500Z,43.14
2023-03-30T07:10:43.952Z,42.54
2023-03-30T07:13:11.901Z,42.13
2023-03-30T07:15:39.847Z,42.42
2023-03-30T07:18:08.517Z,41.35
2023-03-30T07:20:36.603Z,41.67
2023-03-30T07:23:04.995Z,39.64
2023-03-30T07:25:33.112Z,39.54
2023-03-30T07:28:02.414Z,39.06
2023-03-30T07:30:30.617Z,37.33
2023-03-30T07:32:58.978Z,37.04
2023-03-30T07:35:27.427Z,37.10
2023-03-30T07:38:02.898Z,36.95
2023-03-30T07:40:31.974Z,37.74
2023-03-30T07:42:59.927Z,35.83
2023-03-30T07:45:29.293Z,35.82
2023-03-30T07:47:57.607Z,34.18
2023-03-30T07:50:26.053Z,33.40
2023-03-30T07:52:54.017Z,32.74
2023-03-30T07:55:22.011Z,29.89
2023-03-30T07:57:49.906Z,30.65
2023-03-30T08:00:19.309Z,29.82
2023-03-30T08:02:49.190Z,32.40
2023-03-30T08:05:17.977Z,31.16
2023-03-30T08:07:46.463Z,32.71
2023-03-30T08:10:14.454Z,32.72
2023-03-30T08:12:42.442Z,31.58
2023-03-30T08:15:11.586Z,30.59
2023-03-30T08:17:39.792Z,30.93
2023-03-30T08:20:11.723Z,29.41
2023-03-30T08:22:39.837Z,30.59
2023-03-30T08:25:08.176Z,27.57
2023-03-30T08:27:36.260Z,28.49
2023-03-30T08:30:04.424Z,31.17
2023-03-30T08:32:32.371Z,29.62
2023-03-30T08:35:01.041Z,29.58
2023-03-30T08:37:31.497Z,31.02
2023-03-30T08:39:59.453Z,26.86
2023-03-30T08:42:47.434Z,27.48
2023-03-30T08:45:15.809Z,28.46
2023-03-30T08:47:48.071Z,26.65
2023-03-30T08:50:19.860Z,26.77
2023-03-30T08:52:50.823Z,25.42
2023-03-30T08:55:25.459Z,27.52
2023-03-30T08:58:00.564Z,28.92
2023-03-30T09:00:39.382Z,24.07
2023-03-30T09:03:19.853Z,25.35
2023-03-30T09:05:54.625Z,25.42
2023-03-30T09:08:29.263Z,24.43
2023-03-30T09:11:01.009Z,26.00
2023-03-30T09:13:33.870Z,24.35
2023-03-30T09:16:11.649Z,25.33
2023-03-30T09:18:42.345Z,27.07
2023-03-30T09:21:13.295Z,24.13
2023-03-30T09:23:43.205Z,25.50
2023-03-30T09:26:23.275Z,25.94
2023-03-30T09:28:58.080Z,28.02
2023-03-30T09:31:34.583Z,24.93
2023-03-30T09:34:08.795Z,26.68
2023-03-30T09:36:43.796Z,27.02
2023-03-30T09:39:19.797Z,25.10
2023-03-30T09:42:01.611Z,22.80
2023-03-30T09:44:36.196Z,24.48
2023-03-30T09:47:15.565Z,26.26
2023-03-30T09:49:44.294Z,24.68
2023-03-30T09:52:22.170Z,25.65
2023-03-30T09:54:51.903Z,24.23
2023-03-30T09:57:30.087Z,24.52
2023-03-30T09:59:59.863Z,25.90
2023-03-30T10:02:31.545Z,24.44
2023-03-30T10:05:04.846Z,24.18
2023-03-30T10:07:35.704Z,26.03
2023-03-30T10:10:17.046Z,27.22
2023-03-30T10:12:46.355Z,26.10
2023-03-30T10:15:18.629Z,25.32
2023-03-30T10:17:48.595Z,25.14
2023-03-30T10:20:28.566Z,26.19
2023-03-30T10:22:58.163Z,26.29
2023-03-30T10:25:29.698Z,29.23
2023-03-30T10:28:01.692Z,27.21
2023-03-30T10:30:31.041Z,25.44
2023-03-30T10:33:02.879Z,27.32
2023-03-30T10:35:37.284Z,25.85
2023-03-30T10:38:07.819Z,24.74
2023-03-30T10:40:40.851Z,25.38
2023-03-30T10:43:15.847Z,23.40
2023-03-30T10:45:48.380Z,23.53
2023-03-30T10:48:32.358Z,25.39
2023-03-30T10:51:10.273Z,25.41
2023-03-30T10:53:45.796Z,26.38
2023-03-30T10:56:27.798Z,29.39
2023-03-30T10:59:18.694Z,25.83
2023-03-30T11:02:03.144Z,24.34
2023-03-30T11:04:35.302Z,26.06
2023-03-30T11:07:03.935Z,27.53
2023-03-30T11:09:36.409Z,26.04
2023-03-30T11:12:09.228Z,26.56
2023-03-30T11:14:45.944Z,27.83
2023-03-30T11:17:21.246Z,26.16
2023-03-30T11:19:52.108Z,28.70
2023-03-30T11:22:33.557Z,27.03
2023-03-30T11:25:05.234Z,26.83
2023-03-30T11:27:40.934Z,25.57
2023-03-30T11:30:14.503Z,26.37
2023-03-30T11:32:49.289Z,26.96
2023-03-30T11:35:25.575Z,29.18
2023-03-30T11:37:58.632Z,26.27
2023-03-30T11:40:28.570Z,27.68
2023-03-30T11:42:57.995Z,26.88
2023-03-30T11:45:42.095Z,25.23
2023-03-30T11:48:41.736Z,24.56
2023-03-30T11:51:22.740Z,25.87
2023-03-30T11:53:57.016Z,23.50
2023-03-30T11:56:32.332Z,23.07
2023-03-30T11:59:06.019Z,24.02
2023-03-30T12:01:51.462Z,23.78
2023-03-30T12:04:28.561Z,24.67
2023-03-30T12:06:59.964Z,24.75
2023-03-30T12:09:32.119Z,24.86
2023-03-30T12:12:11.955Z,23.82
2023-03-30T12:15:00.532Z,24.25
2023-03-30T12:17:41.951Z,24.84
2023-03-30T12:20:22.756Z,24.60
2023-03-30T12:22:56.625Z,24.24
2023-03-30T12:25:34.919Z,25.39
2023-03-30T12:28:13.313Z,25.04
2023-03-30T12:30:55.032Z,22.96
2023-03-30T12:33:28.828Z,25.03
2023-03-30T12:36:02.668Z,23.95
2023-03-30T12:38:39.306Z,23.86
2023-03-30T12:41:18.344Z,23.54
2023-03-30T12:44:09.605Z,23.67
2023-03-30T12:46:50.092Z,25.42
2023-03-30T12:49:28.006Z,25.34
2023-03-30T12:52:09.638Z,24.51
2023-03-30T12:54:51.361Z,24.34
2023-03-30T12:57:32.358Z,24.83
2023-03-30T13:00:25.095Z,24.49
2023-03-30T13:03:15.392Z,24.73
2023-03-30T13:05:45.057Z,24.57
2023-03-30T13:08:22.824Z,23.15
2023-03-30T13:10:50.916Z,24.48
2023-03-30T13:13:24.138Z,23.87
2023-03-30T13:15:54.542Z,22.66
2023-03-30T13:18:34.354Z,25.58
2023-03-30T13:21:18.638Z,24.53
2023-03-30T13:24:00.601Z,24.43
2023-03-30T13:26:34.895Z,22.41
2023-03-30T13:29:10.321Z,20.91
2023-03-30T13:31:58.921Z,24.70
2023-03-30T13:34:48.775Z,25.88
2023-03-30T13:37:28.991Z,21.80
2023-03-30T13:40:03.130Z,20.16
2023-03-30T13:42:45.745Z,22.98
2023-03-30T13:45:32.280Z,24.65
2023-03-30T13:48:13.871Z,25.85
2023-03-30T13:50:48.425Z,23.05
2023-03-30T13:53:18.189Z,25.83
2023-03-30T13:55:49.561Z,23.21
2023-03-30T13:58:20.076Z,23.91
2023-03-30T14:00:51.489Z,26.80
2023-03-30T14:03:34.832Z,24.17
2023-03-30T14:06:08.713Z,21.91
2023-03-30T14:08:39.136Z,22.47
2023-03-30T14:11:15.648Z,21.86
2023-03-30T14:13:44.858Z,21.27
2023-03-30T14:16:19.082Z,20.86
2023-03-30T14:18:47.130Z,22.27
2023-03-30T14:21:18.755Z,23.34
2023-03-30T14:23:51.164Z,22.67
2023-03-30T14:26:23.222Z,21.96
2023-03-30T14:28:55.699Z,26.14
2023-03-30T14:31:23.819Z,29.07
2023-03-30T14:33:51.777Z,28.00
2023-03-30T14:36:22.977Z,24.36
2023-03-30T14:38:53.049Z,24.63
2023-03-30T14:41:23.872Z,25.00
2023-03-30T14:43:56.240Z,24.64
2023-03-30T14:46:25.924Z,26.44
2023-03-30T14:48:54.052Z,24.33
2023-03-30T14:51:27.970Z,24.15
2023-03-30T14:53:57.891Z,24.89
2023-03-30T14:56:28.126Z,25.56
2023-03-30T14:58:57.195Z,24.62
2023-03-30T15:01:31.594Z,27.12
2023-03-30T15:04:01.244Z,26.39
2023-03-30T15:06:31.767Z,28.66
2023-03-30T15:09:04.234Z,28.17
2023-03-30T15:11:35.922Z,27.97
2023-03-30T15:14:09.747Z,26.67
2023-03-30T15:16:38.766Z,25.95
2023-03-30T15:19:12.258Z,27.05
2023-03-30T15:21:41.949Z,28.27
2023-03-30T15:24:17.104Z,29.19
2023-03-30T15:26:48.338Z,30.27
2023-03-30T15:29:19.394Z,29.94
2023-03-30T15:31:47.324Z,29.87
2023-03-30T15:34:17.184Z,30.49
2023-03-30T15:36:54.572Z,29.18
2023-03-30T15:39:24.450Z,29.95
2023-03-30T15:42:01.515Z,29.10
2023-03-30T15:44:29.938Z,27.90
2023-03-30T15:46:59.840Z,31.58
2023-03-30T15:49:31.586Z,31.76
2023-03-30T15:52:02.722Z,32.65
2023-03-30T15:54:35.191Z,31.48
2023-03-30T15:57:05.709Z,33.02
2023-03-30T15:59:37.517Z,34.20
2023-03-30T16:02:16.529Z,34.63
2023-03-30T16:04:44.825Z,35.18
2023-03-30T16:07:18.335Z,35.91
2023-03-30T16:09:46.330Z,36.17
2023-03-30T16:12:16.662Z,34.89
2023-03-30T16:14:44.849Z,34.27
2023-03-30T16:17:14.150Z,35.32
2023-03-30T16:19:42.890Z,35.62
2023-03-30T16:22:12.727Z,36.31
2023-03-30T16:24:43.100Z,37.12
2023-03-30T16:27:13.026Z,37.75
2023-03-30T16:29:41.093Z,37.97
2023-03-30T16:32:09.041Z,38.28
2023-03-30T16:34:36.961Z,38.05
2023-03-30T16:37:04.908Z,37.80
2023-03-30T16:39:32.980Z,37.89
2023-03-30T16:42:02.305Z,38.35
2023-03-30T16:44:30.224Z,38.05
2023-03-30T16:46:58.131Z,38.57
2023-03-30T16:49:27.432Z,38.15
2023-03-30T16:51:57.993Z,38.25
2023-03-30T16:56:57.480Z,38.90
2023-03-30T16:59:29.163Z,38.33
2023-03-30T17:01:57.669Z,39.01
2023-03-30T17:04:25.673Z,38.08
2023-03-30T17:06:54.745Z,39.49
2023-03-30T17:09:22.899Z,38.05
2023-03-30T17:11:52.209Z,39.44
2023-03-30T17:14:20.945Z,39.04
2023-03-30T17:16:50.686Z,40.00
2023-03-30T17:19:18.615Z,40.31
2023-03-30T17:21:46.520Z,40.04
2023-03-30T17:24:16.563Z,40.93
2023-03-30T17:26:44.552Z,40.74
2023-03-30T17:29:12.469Z,41.38
2023-03-30T17:31:45.559Z,41.60
2023-03-30T17:34:15.795Z,42.35
2023-03-30T17:36:43.832Z,41.94
2023-03-30T17:39:14.442Z,41.39
2023-03-30T17:41:42.408Z,42.08
2023-03-30T17:44:10.347Z,41.77
2023-03-30T17:46:38.327Z,42.34
2023-03-30T17:49:17.828Z,42.63
2023-03-30T17:51:45.941Z,42.35
2023-03-30T17:54:13.883Z,42.83
2023-03-30T17:56:41.838Z,43.29
2023-03-30T17:59:11.596Z,42.89
2023-03-30T18:01:40.038Z,42.65
2023-03-30T18:04:08.347Z,42.75
2023-03-30T18:06:37.759Z,43.00
2023-03-30T18:09:07.642Z,42.83
2023-03-30T18:11:35.554Z,42.67
2023-03-30T18:14:03.453Z,42.85
2023-03-30T18:16:31.790Z,43.36
2023-03-30T18:18:59.721Z,43.54
2023-03-30T18:21:27.633Z,43.74
2023-03-30T18:23:57.009Z,43.63
2023-03-30T18:26:24.910Z,43.80
2023-03-30T18:28:52.842Z,43.74
2023-03-30T18:31:21.061Z,43.78
2023-03-30T18:33:50.979Z,44.10
2023-03-30T18:36:21.331Z,43.12
2023-03-30T18:38:50.326Z,43.13
2023-03-30T18:41:19.667Z,41.32
2023-03-30T18:43:47.665Z,42.59
2023-03-30T18:46:15.748Z,42.85
2023-03-30T18:48:43.712Z,42.77
2023-03-30T18:51:12.950Z,42.95
2023-03-30T18:53:41.276Z,42.95
2023-03-30T18:56:13.694Z,43.50
2023-03-30T18:58:43.235Z,43.80
2023-03-30T19:01:13.775Z,43.95
2023-03-30T19:03:42.226Z,44.24
2023-03-30T19:06:13.921Z,44.91
2023-03-30T19:08:43.609Z,45.16
2023-03-30T19:11:16.563Z,45.44
2023-03-30T19:13:47.220Z,45.92
2023-03-30T19:16:16.721Z,46.81
2023-03-30T19:18:44.721Z,46.22
2023-03-30T19:21:16.632Z,45.88
2023-03-30T19:23:44.592Z,44.96
2023-03-30T19:26:12.948Z,45.08
2023-03-30T19:28:41.211Z,44.96
2023-03-30T19:31:13.516Z,44.66
2023-03-30T19:33:41.621Z,45.48
2023-03-30T19:36:10.920Z,45.28
2023-03-30T19:38:38.868Z,45.76
2023-03-30T19:41:07.739Z,45.98
2023-03-30T19:43:36.020Z,46.41
2023-03-30T19:46:05.069Z,46.59
2023-03-30T19:48:34.439Z,46.73
2023-03-30T19:51:02.530Z,47.05
2023-03-30T19:53:30.674Z,47.18
2023-03-30T19:55:58.612Z,47.89
2023-03-30T19:58:26.517Z,47.54
2023-03-30T20:00:55.566Z,47.19
2023-03-30T20:03:23.634Z,46.92
2023-03-30T20:05:53.127Z,47.20
2023-03-30T20:08:24.235Z,47.03
2023-03-30T20:10:53.344Z,46.82
2023-03-30T20:13:24.075Z,47.66
2023-03-30T20:15:55.824Z,48.41
2023-03-30T20:18:23.989Z,48.60
2023-03-30T20:20:53.292Z,48.87
2023-03-30T20:23:21.235Z,48.39
2023-03-30T20:25:54.266Z,48.07
2023-03-30T20:28:22.171Z,48.31
2023-03-30T20:30:50.090Z,48.27
2023-03-30T20:33:18.816Z,48.00
2023-03-30T20:35:46.827Z,48.09
2023-03-30T20:38:16.154Z,48.37
2023-03-30T20:40:44.074Z,48.14
2023-03-30T20:43:12.019Z,47.86
2023-03-30T20:45:48.163Z,47.64
2023-03-30T20:48:26.198Z,47.51
2023-03-30T20:50:55.478Z,47.26
2023-03-30T20:53:25.321Z,48.65
2023-03-30T20:55:53.325Z,49.46
2023-03-30T20:58:22.587Z,50.37
2023-03-30T21:00:52.034Z,50.61
2023-03-30T21:03:20.801Z,52.52
2023-03-30T21:05:58.962Z,53.84
2023-03-30T21:08:28.740Z,52.89
2023-03-30T21:10:56.907Z,51.23
2023-03-30T21:13:25.165Z,52.73
2023-03-30T21:15:57.428Z,51.91
2023-03-30T21:18:25.781Z,51.42
2023-03-30T21:20:54.198Z,51.14
2023-03-30T21:23:25.403Z,51.19
2023-03-30T21:25:57.808Z,51.61
2023-03-30T21:28:28.609Z,51.26
2023-03-30T21:30:57.795Z,51.99
2023-03-30T21:33:26.852Z,53.44
2023-03-30T21:35:56.333Z,53.72
2023-03-30T21:38:25.400Z,54.57
2023-03-30T21:41:02.793Z,56.17
2023-03-30T21:43:32.537Z,56.03
2023-03-30T21:46:02.790Z,56.05
2023-03-30T21:48:32.925Z,54.68
2023-03-30T21:51:02.078Z,53.52
2023-03-30T21:53:31.276Z,53.42
2023-03-30T21:55:59.581Z,52.37
2023-03-30T21:58:29.743Z,52.88
2023-03-30T22:01:09.051Z,52.60
2023-03-30T22:03:40.815Z,52.75
2023-03-30T22:06:10.840Z,52.02
2023-03-30T22:08:38.903Z,51.11
2023-03-30T22:11:08.888Z,50.76
2023-03-30T22:13:38.405Z,51.33
2023-03-30T22:16:09.328Z,52.67
2023-03-30T22:18:37.582Z,52.63
2023-03-30T22:21:07.333Z,52.70
2023-03-30T22:23:35.446Z,52.01
2023-03-30T22:26:03.565Z,53.36
2023-03-30T22:28:31.750Z,53.50
2023-03-30T22:31:01.277Z,53.56
2023-03-30T22:33:29.857Z,50.58
2023-03-30T22:35:59.882Z,50.95
2023-03-30T22:38:27.982Z,50.38
2023-03-30T22:41:04.604Z,50.78
2023-03-30T22:43:34.580Z,50.97
2023-03-30T22:46:04.061Z,51.86
2023-03-30T22:48:32.748Z,54.07
2023-03-30T22:51:03.391Z,56.53
2023-03-30T22:53:32.180Z,54.79
2023-03-30T22:56:00.126Z,56.79
2023-03-30T22:58:28.404Z,58.82
2023-03-30T23:01:01.150Z,58.62
2023-03-30T23:03:30.845Z,59.13
2023-03-30T23:06:01.285Z,57.40
2023-03-30T23:08:30.004Z,57.58
2023-03-30T23:11:03.900Z,58.30
2023-03-30T23:13:32.174Z,57.26
2023-03-30T23:16:01.587Z,57.80
2023-03-30T23:18:30.954Z,57.83
2023-03-30T23:20:59.026Z,57.28
2023-03-30T23:23:27.088Z,56.35
2023-03-30T23:25:55.031Z,57.13
2023-03-30T23:28:22.985Z,59.19
2023-03-30T23:30:51.365Z,59.33
2023-03-30T23:33:19.279Z,60.54
2023-03-30T23:35:51.000Z,60.93
2023-03-30T23:38:19.238Z,63.22
2023-03-30T23:40:47.158Z,60.40
2023-03-30T23:43:15.074Z,59.98
2023-03-30T23:45:44.294Z,58.89
2023-03-30T23:48:12.186Z,59.62
2023-03-30T23:50:40.095Z,58.69
2023-03-30T23:53:09.457Z,58.20
2023-03-30T23:55:37.766Z,58.10
2023-03-30T23:58:06.023Z,61.15
